createdAt,value
2023-04-01T00:00:15.752Z,949.21
2023-04-01T00:01:15.766Z,949.28
2023-04-01T00:02:15.835Z,949.20
2023-04-01T00:03:15.858Z,949.19
2023-04-01T00:04:15.762Z,949.19
2023-04-01T00:05:15.665Z,949.18
2023-04-01T00:06:15.665Z,949.24
2023-04-01T00:07:15.656Z,949.20
2023-04-01T00:08:15.610Z,949.25
2023-04-01T00:09:15.593Z,949.20
2023-04-01T00:10:15.571Z,949.15
2023-04-01T00:11:15.898Z,949.16
2023-04-01T00:12:15.714Z,949.20
2023-04-01T00:13:15.536Z,949.14
2023-04-01T00:14:15.516Z,949.20
2023-04-01T00:15:15.511Z,949.16
2023-04-01T00:16:21.816Z,949.14
2023-04-01T00:17:17.537Z,949.15
2023-04-01T00:18:15.448Z,949.19
2023-04-01T00:19:15.676Z,949.14
2023-04-01T00:20:15.408Z,949.22
2023-04-01T00:21:15.398Z,949.20
2023-04-01T00:22:15.409Z,949.14
2023-04-01T00:23:15.362Z,949.12
2023-04-01T00:24:15.364Z,949.12
2023-04-01T00:25:15.370Z,949.15
2023-04-01T00:26:15.311Z,949.14
2023-04-01T00:27:15.318Z,949.07
2023-04-01T00:28:15.269Z,949.08
2023-04-01T00:29:15.349Z,949.08
2023-04-01T00:30:16.255Z,949.15
2023-04-01T00:31:15.251Z,949.12
2023-04-01T00:32:15.236Z,949.05
2023-04-01T00:33:15.191Z,949.06
2023-04-01T00:34:15.159Z,949.07
2023-04-01T00:35:15.155Z,949.05
2023-04-01T00:36:15.154Z,949.08
2023-04-01T00:37:15.168Z,949.15
2023-04-01T00:38:15.093Z,949.11
2023-04-01T00:39:15.079Z,949.11
2023-04-01T00:40:15.092Z,949.13
2023-04-01T00:41:15.073Z,949.10
2023-04-01T00:42:15.061Z,949.09
2023-04-01T00:43:15.019Z,949.15
2023-04-01T00:44:15.024Z,949.09
2023-04-01T00:45:15.004Z,949.12
2023-04-01T00:46:15.058Z,949.13
2023-04-01T00:47:15.037Z,949.10
2023-04-01T00:48:14.946Z,949.24
2023-04-01T00:49:14.949Z,949.07
2023-04-01T00:50:14.916Z,949.06
2023-04-01T00:51:14.886Z,949.14
2023-04-01T00:52:14.900Z,949.13
2023-04-01T00:53:14.866Z,949.06
2023-04-01T00:54:14.884Z,949.09
2023-04-01T00:55:14.910Z,949.14
2023-04-01T00:56:14.945Z,949.12
2023-04-01T00:57:14.865Z,949.10
2023-04-01T00:58:14.761Z,949.10
2023-04-01T00:59:14.810Z,949.19
2023-04-01T01:00:14.720Z,949.18
2023-04-01T01:01:14.791Z,949.06
2023-04-01T01:02:14.759Z,949.09
2023-04-01T01:03:14.725Z,949.07
2023-04-01T01:04:15.693Z,949.11
2023-04-01T01:05:14.665Z,949.07
2023-04-01T01:06:14.628Z,949.07
2023-04-01T01:07:14.683Z,949.16
2023-04-01T01:08:14.629Z,949.16
2023-04-01T01:09:14.576Z,949.10
2023-04-01T01:10:14.582Z,949.09
2023-04-01T01:11:14.623Z,949.07
2023-04-01T01:12:14.579Z,949.07
2023-04-01T01:13:14.834Z,949.12
2023-04-01T01:14:14.504Z,949.13
2023-04-01T01:15:14.478Z,949.06
2023-04-01T01:16:14.553Z,949.10
2023-04-01T01:17:14.479Z,949.03
2023-04-01T01:18:14.435Z,949.02
2023-04-01T01:19:14.408Z,949.02
2023-04-01T01:20:23.006Z,949.01
2023-04-01T01:21:16.374Z,949.00
2023-04-01T01:22:14.390Z,949.03
2023-04-01T01:23:14.361Z,948.99
2023-04-01T01:24:14.402Z,948.97
2023-04-01T01:25:14.305Z,948.96
2023-04-01T01:26:14.298Z,948.95
2023-04-01T01:27:14.347Z,948.99
2023-04-01T01:28:14.248Z,949.00
2023-04-01T01:29:14.253Z,948.97
2023-04-01T01:30:14.223Z,948.96
2023-04-01T01:31:14.272Z,948.92
2023-04-01T01:32:14.236Z,948.95
2023-04-01T01:33:14.188Z,948.93
2023-04-01T01:34:14.147Z,948.90
2023-04-01T01:35:14.142Z,948.87
2023-04-01T01:36:14.137Z,948.87
2023-04-01T01:37:14.153Z,948.87
2023-04-01T01:38:14.086Z,948.83
2023-04-01T01:39:14.075Z,948.85
2023-04-01T01:40:14.046Z,948.87
2023-04-01T01:41:14.035Z,948.83
2023-04-01T01:42:14.036Z,948.91
2023-04-01T01:43:14.042Z,948.75
2023-04-01T01:44:13.982Z,948.90
2023-04-01T01:45:13.962Z,948.83
2023-04-01T01:46:13.978Z,948.95
2023-04-01T01:47:13.960Z,948.77
2023-04-01T01:48:13.921Z,948.84
2023-04-01T01:49:13.976Z,948.80
2023-04-01T01:50:13.950Z,948.82
2023-04-01T01:51:13.881Z,948.79
2023-04-01T01:52:13.896Z,948.79
2023-04-01T01:53:13.828Z,948.80
2023-04-01T01:54:13.806Z,948.78
2023-04-01T01:55:13.788Z,948.81
2023-04-01T01:56:13.782Z,948.80
2023-04-01T01:57:13.801Z,948.79
2023-04-01T01:58:13.738Z,948.77
2023-04-01T01:59:13.727Z,948.81
2023-04-01T02:00:13.710Z,948.80
2023-04-01T02:01:13.737Z,948.87
2023-04-01T02:02:13.709Z,948.87
2023-04-01T02:03:13.661Z,948.83
2023-04-01T02:04:13.684Z,948.77
2023-04-01T02:05:13.637Z,948.78
2023-04-01T02:06:13.604Z,948.75
2023-04-01T02:07:13.638Z,948.77
2023-04-01T02:08:13.651Z,948.78
2023-04-01T02:09:13.550Z,948.82
2023-04-01T02:10:13.550Z,948.75
2023-04-01T02:11:13.520Z,948.76
2023-04-01T02:12:13.535Z,948.72
2023-04-01T02:13:13.498Z,948.79
2023-04-01T02:14:13.750Z,948.75
2023-04-01T02:15:13.465Z,948.76
2023-04-01T02:16:13.481Z,948.73
2023-04-01T02:17:13.465Z,948.71
2023-04-01T02:18:13.407Z,948.74
2023-04-01T02:19:13.406Z,948.71
2023-04-01T02:20:14.495Z,948.71
2023-04-01T02:21:13.378Z,948.73
2023-04-01T02:22:13.390Z,948.74
2023-04-01T02:23:13.562Z,948.76
2023-04-01T02:24:13.316Z,948.81
2023-04-01T02:25:13.302Z,948.80
2023-04-01T02:26:13.261Z,948.75
2023-04-01T02:27:13.282Z,948.77
2023-04-01T02:28:13.238Z,948.78
2023-04-01T02:29:13.311Z,948.80
2023-04-01T02:30:13.194Z,948.85
2023-04-01T02:31:13.230Z,948.76
2023-04-01T02:32:13.195Z,948.79
2023-04-01T02:33:13.197Z,948.77
2023-04-01T02:34:13.138Z,948.76
2023-04-01T02:35:13.114Z,948.80
2023-04-01T02:36:13.164Z,948.79
2023-04-01T02:37:13.351Z,948.78
2023-04-01T02:38:13.093Z,948.79
2023-04-01T02:39:13.059Z,948.82
2023-04-01T02:40:13.070Z,948.87
2023-04-01T02:41:13.027Z,948.88
2023-04-01T02:42:13.030Z,948.90
2023-04-01T02:43:13.037Z,948.84
2023-04-01T02:44:12.966Z,948.77
2023-04-01T02:45:12.945Z,948.80
2023-04-01T02:46:13.358Z,948.84
2023-04-01T02:47:12.937Z,948.79
2023-04-01T02:48:12.899Z,948.79
2023-04-01T02:49:12.880Z,948.85
2023-04-01T02:50:12.886Z,948.88
2023-04-01T02:51:12.844Z,948.83
2023-04-01T02:52:12.871Z,948.71
2023-04-01T02:53:12.842Z,948.89
2023-04-01T02:54:12.819Z,948.82
2023-04-01T02:55:12.791Z,948.86
2023-04-01T02:56:12.900Z,948.82
2023-04-01T02:57:13.168Z,948.90
2023-04-01T02:58:12.788Z,948.91
2023-04-01T02:59:12.825Z,948.87
2023-04-01T03:00:12.694Z,948.84
2023-04-01T03:01:12.742Z,948.92
2023-04-01T03:02:12.707Z,948.86
2023-04-01T03:03:12.747Z,948.83
2023-04-01T03:04:12.642Z,948.92
2023-04-01T03:05:12.616Z,948.87
2023-04-01T03:06:12.610Z,948.82
2023-04-01T03:07:12.591Z,948.92
2023-04-01T03:08:12.609Z,948.90
2023-04-01T03:09:12.766Z,948.91
2023-04-01T03:10:12.564Z,948.84
2023-04-01T03:11:12.563Z,948.86
2023-04-01T03:12:12.509Z,948.91
2023-04-01T03:13:12.510Z,948.87
2023-04-01T03:14:12.468Z,948.94
2023-04-01T03:15:12.444Z,948.91
2023-04-01T03:16:12.445Z,948.94
2023-04-01T03:17:12.406Z,948.95
2023-04-01T03:18:12.530Z,948.96
2023-04-01T03:19:12.462Z,948.92
2023-04-01T03:20:12.554Z,948.93
2023-04-01T03:21:12.355Z,948.86
2023-04-01T03:22:12.329Z,948.88
2023-04-01T03:23:12.432Z,948.89
2023-04-01T03:24:12.407Z,948.97
2023-04-01T03:25:12.284Z,948.95
2023-04-01T03:26:12.254Z,948.96
2023-04-01T03:27:12.251Z,948.94
2023-04-01T03:28:12.251Z,948.91
2023-04-01T03:29:44.113Z,948.91
2023-04-01T03:30:12.335Z,948.90
2023-04-01T03:31:12.192Z,948.86
2023-04-01T03:32:12.146Z,948.93
2023-04-01T03:33:12.164Z,948.99
2023-04-01T03:34:12.115Z,948.89
2023-04-01T03:35:12.126Z,948.93
2023-04-01T03:36:12.136Z,948.92
2023-04-01T03:37:12.085Z,948.90
2023-04-01T03:38:12.119Z,949.04
2023-04-01T03:39:12.042Z,948.86
2023-04-01T03:40:12.024Z,948.93
2023-04-01T03:41:12.001Z,948.99
2023-04-01T03:42:11.983Z,948.94
2023-04-01T03:43:12.060Z,948.92
2023-04-01T03:44:11.944Z,948.91
2023-04-01T03:45:11.925Z,948.88
2023-04-01T03:46:11.983Z,948.84
2023-04-01T03:47:11.894Z,948.94
2023-04-01T03:48:11.939Z,948.90
2023-04-01T03:49:11.861Z,948.84
2023-04-01T03:50:11.865Z,948.91
2023-04-01T03:51:11.825Z,948.90
2023-04-01T03:52:11.825Z,948.88
2023-04-01T03:53:11.824Z,948.84
2023-04-01T03:54:11.786Z,948.86
2023-04-01T03:55:11.758Z,948.92
2023-04-01T03:56:11.750Z,948.96
2023-04-01T03:57:11.809Z,948.90
2023-04-01T03:58:11.752Z,948.93
2023-04-01T03:59:11.716Z,948.89
2023-04-01T04:00:11.675Z,948.89
2023-04-01T04:01:11.667Z,948.97
2023-04-01T04:02:11.672Z,948.98
2023-04-01T04:03:11.724Z,948.85
2023-04-01T04:04:11.649Z,948.90
2023-04-01T04:05:11.608Z,948.94
2023-04-01T04:06:11.573Z,949.02
2023-04-01T04:07:11.568Z,949.00
2023-04-01T04:08:11.574Z,949.04
2023-04-01T04:09:11.541Z,948.98
2023-04-01T04:10:12.517Z,949.00
2023-04-01T04:11:11.499Z,949.01
2023-04-01T04:12:11.472Z,948.92
2023-04-01T04:13:11.517Z,948.97
2023-04-01T04:14:11.449Z,949.05
2023-04-01T04:15:11.425Z,948.98
2023-04-01T04:16:11.425Z,949.05
2023-04-01T04:17:11.401Z,949.06
2023-04-01T04:18:11.401Z,948.92
2023-04-01T04:19:11.430Z,948.88
2023-04-01T04:20:11.350Z,948.87
2023-04-01T04:21:11.320Z,948.94
2023-04-01T04:22:11.317Z,949.02
2023-04-01T04:23:11.323Z,948.97
2023-04-01T04:24:11.279Z,948.99
2023-04-01T04:25:11.261Z,949.04
2023-04-01T04:26:11.288Z,949.02
2023-04-01T04:27:11.246Z,949.01
2023-04-01T04:28:12.238Z,949.06
2023-04-01T04:29:11.209Z,949.03
2023-04-01T04:30:11.186Z,949.04
2023-04-01T04:31:11.234Z,948.99
2023-04-01T04:32:11.141Z,948.97
2023-04-01T04:33:11.228Z,948.99
2023-04-01T04:34:11.112Z,949.01
2023-04-01T04:35:11.098Z,949.04
2023-04-01T04:36:11.094Z,949.06
2023-04-01T04:37:11.063Z,949.05
2023-04-01T04:38:11.073Z,948.99
2023-04-01T04:39:11.024Z,949.05
2023-04-01T04:40:11.024Z,949.09
2023-04-01T04:41:10.993Z,949.03
2023-04-01T04:42:10.986Z,949.06
2023-04-01T04:43:10.996Z,949.09
2023-04-01T04:44:10.955Z,949.08
2023-04-01T04:45:10.921Z,949.11
2023-04-01T04:46:10.913Z,949.03
2023-04-01T04:47:10.893Z,949.02
2023-04-01T04:48:10.898Z,949.06
2023-04-01T04:49:10.853Z,949.02
2023-04-01T04:50:10.866Z,949.08
2023-04-01T04:51:10.950Z,949.06
2023-04-01T04:52:10.799Z,949.12
2023-04-01T04:53:10.806Z,949.00
2023-04-01T04:54:10.772Z,949.02
2023-04-01T04:55:10.744Z,949.03
2023-04-01T04:56:10.769Z,949.11
2023-04-01T04:57:10.754Z,949.07
2023-04-01T04:58:10.735Z,949.12
2023-04-01T04:59:10.688Z,949.12
2023-04-01T05:00:10.668Z,949.03
2023-04-01T05:01:10.678Z,949.00
2023-04-01T05:02:10.690Z,949.14
2023-04-01T05:03:10.745Z,949.11
2023-04-01T05:04:10.609Z,949.06
2023-04-01T05:05:10.583Z,949.13
2023-04-01T05:06:10.569Z,949.02
2023-04-01T05:07:10.588Z,949.13
2023-04-01T05:08:10.568Z,949.09
2023-04-01T05:09:10.515Z,949.11
2023-04-01T05:10:10.507Z,949.16
2023-04-01T05:11:13.112Z,949.10
2023-04-01T05:12:10.484Z,949.12
2023-04-01T05:13:10.486Z,949.11
2023-04-01T05:14:10.443Z,949.26
2023-04-01T05:15:10.421Z,949.12
2023-04-01T05:16:10.409Z,949.10
2023-04-01T05:17:10.414Z,949.11
2023-04-01T05:18:10.425Z,949.14
2023-04-01T05:19:10.365Z,949.12
2023-04-01T05:20:10.325Z,949.09
2023-04-01T05:21:10.312Z,949.25
2023-04-01T05:22:10.293Z,949.14
2023-04-01T05:23:10.305Z,949.14
2023-04-01T05:24:10.267Z,949.10
2023-04-01T05:25:10.250Z,949.08
2023-04-01T05:26:10.224Z,949.11
2023-04-01T05:27:10.225Z,949.17
2023-04-01T05:28:10.229Z,949.09
2023-04-01T05:29:10.181Z,949.13
2023-04-01T05:30:10.160Z,949.15
2023-04-01T05:31:10.185Z,949.16
2023-04-01T05:32:10.132Z,949.05
2023-04-01T05:33:10.130Z,949.12
2023-04-01T05:34:10.094Z,949.11
2023-04-01T05:35:10.107Z,949.12
2023-04-01T05:36:10.100Z,949.18
2023-04-01T05:37:10.038Z,949.10
2023-04-01T05:38:10.060Z,949.14
2023-04-01T05:39:10.011Z,949.12
2023-04-01T05:40:09.990Z,949.09
2023-04-01T05:41:09.980Z,949.11
2023-04-01T05:42:09.992Z,949.13
2023-04-01T05:43:09.980Z,949.11
2023-04-01T05:44:09.938Z,949.08
2023-04-01T05:45:09.929Z,949.16
2023-04-01T05:46:09.928Z,949.02
2023-04-01T05:47:09.874Z,949.12
2023-04-01T05:48:09.861Z,949.07
2023-04-01T05:49:09.923Z,949.04
2023-04-01T05:50:09.851Z,949.12
2023-04-01T05:51:09.801Z,949.01
2023-04-01T05:52:09.786Z,949.12
2023-04-01T05:53:09.772Z,949.08
2023-04-01T05:54:09.798Z,949.09
2023-04-01T05:55:09.741Z,949.13
2023-04-01T05:56:09.763Z,949.13
2023-04-01T05:57:09.726Z,949.14
2023-04-01T05:58:09.702Z,949.13
2023-04-01T05:59:09.695Z,949.15
2023-04-01T06:00:09.646Z,949.16
2023-04-01T06:01:12.783Z,949.15
2023-04-01T06:02:11.631Z,949.17
2023-04-01T06:03:09.786Z,949.18
2023-04-01T06:04:09.708Z,949.21
2023-04-01T06:05:09.599Z,949.15
2023-04-01T06:06:09.560Z,949.16
2023-04-01T06:07:09.532Z,949.22
2023-04-01T06:08:09.535Z,949.23
2023-04-01T06:09:09.545Z,949.14
2023-04-01T06:10:09.529Z,949.24
2023-04-01T06:11:09.462Z,949.25
2023-04-01T06:12:09.458Z,949.35
2023-04-01T06:13:09.430Z,949.23
2023-04-01T06:14:09.449Z,949.24
2023-04-01T06:15:09.441Z,949.28
2023-04-01T06:16:09.417Z,949.24
2023-04-01T06:17:09.440Z,949.24
2023-04-01T06:18:09.387Z,949.28
2023-04-01T06:19:09.366Z,949.23
2023-04-01T06:20:09.316Z,949.27
2023-04-01T06:21:09.331Z,949.31
2023-04-01T06:22:09.280Z,949.30
2023-04-01T06:23:09.270Z,949.26
2023-04-01T06:24:09.343Z,949.21
2023-04-01T06:25:09.260Z,949.26
2023-04-01T06:26:09.231Z,949.19
2023-04-01T06:27:09.207Z,949.19
2023-04-01T06:28:09.392Z,949.23
2023-04-01T06:29:10.269Z,949.26
2023-04-01T06:30:09.173Z,949.19
2023-04-01T06:31:09.160Z,949.25
2023-04-01T06:32:09.160Z,949.27
2023-04-01T06:33:09.128Z,949.24
2023-04-01T06:34:09.103Z,949.25
2023-04-01T06:35:09.059Z,949.26
2023-04-01T06:36:09.074Z,949.26
2023-04-01T06:37:09.097Z,949.31
2023-04-01T06:38:09.039Z,949.24
2023-04-01T06:39:11.224Z,949.31
2023-04-01T06:40:09.985Z,949.19
2023-04-01T06:41:08.987Z,949.20
2023-04-01T06:42:08.956Z,949.36
2023-04-01T06:43:09.008Z,949.27
2023-04-01T06:44:08.971Z,949.22
2023-04-01T06:45:08.959Z,949.26
2023-04-01T06:46:09.005Z,949.26
2023-04-01T06:47:08.861Z,949.17
2023-04-01T06:48:08.871Z,949.21
2023-04-01T06:49:08.868Z,949.23
2023-04-01T06:50:08.818Z,949.29
2023-04-01T06:51:08.816Z,949.31
2023-04-01T06:52:08.815Z,949.31
2023-04-01T06:53:08.772Z,949.25
2023-04-01T06:54:08.789Z,949.23
2023-04-01T06:55:08.735Z,949.21
2023-04-01T06:56:08.746Z,949.23
2023-04-01T06:57:08.745Z,949.30
2023-04-01T06:58:08.683Z,949.23
2023-04-01T06:59:08.712Z,949.29
2023-04-01T07:00:08.661Z,949.28
2023-04-01T07:01:08.647Z,949.21
2023-04-01T07:02:08.632Z,949.24
2023-04-01T07:03:08.634Z,949.18
2023-04-01T07:04:08.616Z,949.33
2023-04-01T07:05:08.554Z,949.29
2023-04-01T07:06:09.543Z,949.33
2023-04-01T07:07:08.528Z,949.27
2023-04-01T07:08:08.534Z,949.33
2023-04-01T07:09:08.529Z,949.29
2023-04-01T07:10:08.491Z,949.36
2023-04-01T07:11:08.473Z,949.38
2023-04-01T07:12:08.436Z,949.32
2023-04-01T07:13:09.459Z,949.31
2023-04-01T07:14:08.452Z,949.34
2023-04-01T07:15:08.400Z,949.31
2023-04-01T07:16:08.720Z,949.32
2023-04-01T07:17:08.406Z,949.36
2023-04-01T07:18:08.402Z,949.30
2023-04-01T07:19:08.381Z,949.23
2023-04-01T07:20:08.340Z,949.36
2023-04-01T07:21:08.296Z,949.33
2023-04-01T07:22:08.268Z,949.32
2023-04-01T07:23:08.264Z,949.37
2023-04-01T07:24:08.269Z,949.34
2023-04-01T07:25:08.274Z,949.30
2023-04-01T07:26:08.200Z,949.33
2023-04-01T07:27:08.188Z,949.38
2023-04-01T07:28:08.165Z,949.36
2023-04-01T07:29:08.192Z,949.38
2023-04-01T07:30:08.166Z,949.38
2023-04-01T07:31:08.223Z,949.38
2023-04-01T07:32:08.125Z,949.45
2023-04-01T07:33:08.117Z,949.46
2023-04-01T07:34:08.144Z,949.45
2023-04-01T07:35:08.054Z,949.39
2023-04-01T07:36:08.083Z,949.48
2023-04-01T07:37:08.018Z,949.42
2023-04-01T07:38:08.009Z,949.48
2023-04-01T07:39:08.023Z,949.46
2023-04-01T07:40:07.966Z,949.53
2023-04-01T07:41:07.961Z,949.50
2023-04-01T07:42:07.938Z,949.53
2023-04-01T07:43:07.930Z,949.52
2023-04-01T07:44:07.956Z,949.56
2023-04-01T07:45:07.898Z,949.49
2023-04-01T07:46:07.907Z,949.57
2023-04-01T07:47:07.861Z,949.46
2023-04-01T07:48:07.922Z,949.48
2023-04-01T07:49:07.874Z,949.50
2023-04-01T07:50:07.811Z,949.56
2023-04-01T07:51:07.806Z,949.48
2023-04-01T07:52:07.781Z,949.55
2023-04-01T07:53:07.763Z,949.64
2023-04-01T07:54:07.768Z,949.54
2023-04-01T07:55:07.786Z,949.59
2023-04-01T07:56:07.705Z,949.54
2023-04-01T07:57:07.797Z,949.56
2023-04-01T07:58:07.683Z,949.57
2023-04-01T07:59:07.763Z,949.61
2023-04-01T08:00:07.681Z,949.60
2023-04-01T08:01:07.652Z,949.57
2023-04-01T08:02:07.614Z,949.60
2023-04-01T08:03:07.747Z,949.62
2023-04-01T08:04:07.798Z,949.65
2023-04-01T08:05:07.547Z,949.67
2023-04-01T08:06:08.529Z,949.66
2023-04-01T08:07:07.517Z,949.64
2023-04-01T08:08:07.500Z,949.66
2023-04-01T08:09:07.565Z,949.68
2023-04-01T08:10:07.485Z,949.83
2023-04-01T08:11:07.452Z,949.76
2023-04-01T08:12:07.444Z,949.70
2023-04-01T08:13:07.426Z,949.82
2023-04-01T08:14:07.437Z,949.73
2023-04-01T08:15:07.389Z,949.84
2023-04-01T08:16:07.412Z,949.75
2023-04-01T08:17:07.353Z,949.86
2023-04-01T08:18:07.382Z,949.88
2023-04-01T08:19:07.340Z,949.88
2023-04-01T08:20:07.298Z,949.90
2023-04-01T08:21:07.298Z,949.92
2023-04-01T08:22:07.270Z,949.95
2023-04-01T08:23:07.249Z,949.91
2023-04-01T08:24:07.252Z,949.97
2023-04-01T08:25:07.205Z,949.96
2023-04-01T08:26:07.202Z,949.94
2023-04-01T08:27:07.201Z,950.01
2023-04-01T08:28:07.186Z,949.87
2023-04-01T08:29:07.196Z,949.98
2023-04-01T08:30:09.312Z,949.93
2023-04-01T08:31:07.114Z,949.99
2023-04-01T08:32:07.168Z,949.95
2023-04-01T08:33:07.161Z,949.98
2023-04-01T08:34:07.103Z,950.10
2023-04-01T08:35:07.054Z,949.98
2023-04-01T08:36:07.052Z,950.03
2023-04-01T08:37:07.039Z,950.04
2023-04-01T08:38:07.014Z,950.02
2023-04-01T08:39:06.984Z,950.08
2023-04-01T08:40:06.992Z,950.07
2023-04-01T08:41:06.965Z,950.11
2023-04-01T08:42:07.029Z,950.11
2023-04-01T08:43:06.963Z,949.98
2023-04-01T08:44:06.924Z,950.02
2023-04-01T08:45:06.892Z,950.07
2023-04-01T08:46:06.880Z,950.06
2023-04-01T08:47:06.856Z,950.07
2023-04-01T08:48:06.860Z,950.10
2023-04-01T08:49:06.803Z,950.10
2023-04-01T08:50:06.823Z,950.06
2023-04-01T08:51:06.839Z,950.04
2023-04-01T08:52:06.768Z,950.08
2023-04-01T08:53:06.738Z,950.08
2023-04-01T08:54:06.728Z,950.07
2023-04-01T08:55:06.755Z,950.09
2023-04-01T08:56:06.702Z,950.09
2023-04-01T08:57:06.779Z,950.08
2023-04-01T08:58:06.681Z,950.24
2023-04-01T08:59:06.640Z,950.18
2023-04-01T09:00:06.652Z,950.12
2023-04-01T09:01:06.629Z,950.15
2023-04-01T09:02:06.612Z,950.09
2023-04-01T09:03:06.810Z,950.09
2023-04-01T09:04:06.587Z,950.14
2023-04-01T09:05:06.574Z,950.18
2023-04-01T09:06:06.522Z,950.12
2023-04-01T09:07:06.517Z,950.17
2023-04-01T09:08:06.490Z,950.10
2023-04-01T09:09:06.486Z,950.15
2023-04-01T09:10:06.495Z,950.18
2023-04-01T09:11:06.451Z,950.18
2023-04-01T09:12:06.434Z,950.21
2023-04-01T09:13:06.421Z,950.14
2023-04-01T09:14:06.465Z,950.17
2023-04-01T09:15:06.468Z,950.16
2023-04-01T09:16:06.430Z,950.21
2023-04-01T09:17:06.368Z,950.24
2023-04-01T09:18:06.384Z,950.25
2023-04-01T09:19:06.303Z,950.20
2023-04-01T09:20:06.325Z,950.18
2023-04-01T09:21:06.278Z,950.20
2023-04-01T09:22:06.277Z,950.31
2023-04-01T09:23:06.242Z,950.24
2023-04-01T09:24:06.234Z,950.24
2023-04-01T09:25:06.236Z,950.22
2023-04-01T09:26:06.209Z,950.22
2023-04-01T09:27:06.202Z,950.29
2023-04-01T09:28:06.177Z,950.25
2023-04-01T09:30:38.275Z,950.28
2023-04-01T09:31:38.283Z,950.34
2023-04-01T09:32:38.288Z,950.34
2023-04-01T09:33:38.214Z,950.33
2023-04-01T09:34:38.233Z,950.41
2023-04-01T09:35:38.173Z,950.39
2023-04-01T09:36:38.166Z,950.44
2023-04-01T09:37:38.132Z,950.44
2023-04-01T09:38:38.125Z,950.39
2023-04-01T09:39:38.210Z,950.35
2023-04-01T09:40:38.078Z,950.44
2023-04-01T09:41:38.071Z,950.35
2023-04-01T09:42:38.089Z,950.40
2023-04-01T09:43:38.066Z,950.40
2023-04-01T09:44:40.221Z,950.36
2023-04-01T09:45:39.158Z,950.37
2023-04-01T09:46:39.163Z,950.46
2023-04-01T09:47:39.227Z,950.39
2023-04-01T09:48:39.159Z,950.40
2023-04-01T09:49:39.108Z,950.40
2023-04-01T09:50:39.083Z,950.39
2023-04-01T09:51:39.036Z,950.37
2023-04-01T09:52:39.029Z,950.43
2023-04-01T09:53:39.034Z,950.40
2023-04-01T09:54:39.047Z,950.40
2023-04-01T09:55:39.087Z,950.42
2023-04-01T09:56:38.951Z,950.41
2023-04-01T09:57:38.953Z,950.36
2023-04-01T09:58:43.970Z,950.41
2023-04-01T09:59:40.086Z,950.48
2023-04-01T10:00:38.966Z,950.45
2023-04-01T10:01:38.924Z,950.44
2023-04-01T10:02:38.918Z,950.47
2023-04-01T10:03:38.915Z,950.49
2023-04-01T10:04:38.843Z,950.47
2023-04-01T10:05:38.831Z,950.47
2023-04-01T10:06:38.777Z,950.51
2023-04-01T10:07:38.760Z,950.49
2023-04-01T10:08:38.742Z,950.51
2023-04-01T10:09:38.783Z,950.54
2023-04-01T10:10:38.713Z,950.53
2023-04-01T10:11:38.691Z,950.57
2023-04-01T10:12:38.669Z,950.64
2023-04-01T10:13:38.801Z,950.45
2023-04-01T10:14:38.649Z,950.55
2023-04-01T10:15:38.654Z,950.52
2023-04-01T10:16:38.777Z,950.46
2023-04-01T10:17:38.664Z,950.50
2023-04-01T10:18:38.594Z,950.57
2023-04-01T10:19:38.546Z,950.49
2023-04-01T10:20:38.597Z,950.53
2023-04-01T10:21:38.521Z,950.57
2023-04-01T10:22:38.513Z,950.50
2023-04-01T10:23:38.485Z,950.50
2023-04-01T10:24:38.482Z,950.55
2023-04-01T10:25:38.492Z,950.55
2023-04-01T10:26:38.531Z,950.53
2023-04-01T10:27:38.448Z,950.51
2023-04-01T10:28:38.437Z,950.48
2023-04-01T10:29:38.381Z,950.51
2023-04-01T10:30:38.415Z,950.58
2023-04-01T10:31:38.412Z,950.64
2023-04-01T10:32:38.380Z,950.54
2023-04-01T10:33:38.342Z,950.54
2023-04-01T10:34:38.311Z,950.53
2023-04-01T10:35:38.341Z,950.59
2023-04-01T10:36:38.274Z,950.52
2023-04-01T10:37:38.264Z,950.50
2023-04-01T10:38:38.230Z,950.52
2023-04-01T10:39:38.474Z,950.54
2023-04-01T10:40:38.232Z,950.56
2023-04-01T10:41:38.181Z,950.49
2023-04-01T10:42:38.202Z,950.51
2023-04-01T10:43:38.154Z,950.55
2023-04-01T10:44:38.155Z,950.49
2023-04-01T10:45:38.180Z,950.52
2023-04-01T10:46:38.279Z,950.56
2023-04-01T10:47:38.155Z,950.51
2023-04-01T10:48:38.109Z,950.50
2023-04-01T10:49:38.073Z,950.44
2023-04-01T10:50:38.119Z,950.46
2023-04-01T10:51:38.008Z,950.47
2023-04-01T10:52:37.987Z,950.52
2023-04-01T10:53:39.017Z,950.49
2023-04-01T10:54:37.974Z,950.54
2023-04-01T10:55:38.136Z,950.47
2023-04-01T10:56:37.931Z,950.52
2023-04-01T10:57:37.955Z,950.51
2023-04-01T10:58:37.911Z,950.40
2023-04-01T10:59:38.021Z,950.51
2023-04-01T11:00:37.897Z,950.50
2023-04-01T11:01:37.872Z,950.57
2023-04-01T11:02:37.897Z,950.60
2023-04-01T11:03:37.940Z,950.57
2023-04-01T11:04:37.798Z,950.60
2023-04-01T11:05:37.931Z,950.54
2023-04-01T11:06:37.806Z,950.53
2023-04-01T11:07:37.778Z,950.54
2023-04-01T11:08:37.752Z,950.53
2023-04-01T11:09:37.709Z,950.55
2023-04-01T11:10:38.743Z,950.57
2023-04-01T11:11:37.697Z,950.60
2023-04-01T11:12:37.674Z,950.60
2023-04-01T11:13:37.642Z,950.60
2023-04-01T11:14:37.641Z,950.61
2023-04-01T11:15:37.704Z,950.59
2023-04-01T11:16:37.654Z,950.67
2023-04-01T11:17:37.588Z,950.65
2023-04-01T11:18:37.564Z,950.66
2023-04-01T11:19:37.538Z,950.63
2023-04-01T11:20:37.552Z,950.65
2023-04-01T11:21:37.501Z,950.75
2023-04-01T11:22:38.508Z,950.72
2023-04-01T11:23:37.498Z,950.73
2023-04-01T11:24:37.454Z,950.73
2023-04-01T11:25:37.472Z,950.76
2023-04-01T11:26:37.440Z,950.75
2023-04-01T11:27:39.482Z,950.72
2023-04-01T11:28:37.388Z,950.76
2023-04-01T11:29:38.926Z,950.76
2023-04-01T11:30:37.397Z,950.76
2023-04-01T11:31:37.378Z,950.75
2023-04-01T11:32:37.371Z,950.72
2023-04-01T11:33:37.318Z,950.75
2023-04-01T11:34:37.309Z,950.80
2023-04-01T11:35:37.320Z,950.77
2023-04-01T11:36:37.350Z,950.78
2023-04-01T11:37:37.242Z,950.77
2023-04-01T11:38:37.230Z,950.79
2023-04-01T11:39:37.200Z,950.81
2023-04-01T11:40:37.224Z,950.84
2023-04-01T11:41:37.175Z,950.80
2023-04-01T11:42:37.171Z,950.83
2023-04-01T11:43:37.158Z,950.91
2023-04-01T11:44:37.129Z,950.83
2023-04-01T11:45:37.132Z,950.91
2023-04-01T11:46:37.138Z,950.88
2023-04-01T11:47:37.165Z,950.91
2023-04-01T11:48:37.065Z,950.87
2023-04-01T11:49:37.031Z,950.85
2023-04-01T11:50:37.065Z,950.93
2023-04-01T11:51:37.082Z,950.96
2023-04-01T11:52:36.999Z,950.93
2023-04-01T11:53:36.979Z,950.97
2023-04-01T11:54:36.952Z,950.94
2023-04-01T11:55:36.978Z,951.00
2023-04-01T11:56:36.963Z,950.98
2023-04-01T11:57:36.904Z,950.99
2023-04-01T11:58:36.882Z,951.01
2023-04-01T11:59:37.024Z,950.97
2023-04-01T12:00:36.907Z,951.04
2023-04-01T12:01:36.845Z,951.07
2023-04-01T12:02:36.861Z,951.03
2023-04-01T12:03:36.978Z,951.13
2023-04-01T12:04:36.860Z,951.04
2023-04-01T12:05:36.787Z,951.04
2023-04-01T12:06:36.909Z,951.09
2023-04-01T12:07:36.724Z,951.09
2023-04-01T12:08:36.708Z,951.00
2023-04-01T12:09:36.704Z,951.02
2023-04-01T12:10:36.763Z,951.04
2023-04-01T12:11:36.732Z,951.09
2023-04-01T12:12:36.696Z,951.11
2023-04-01T12:13:36.688Z,951.11
2023-04-01T12:14:36.615Z,951.07
2023-04-01T12:15:36.696Z,951.03
2023-04-01T12:16:36.675Z,951.03
2023-04-01T12:17:36.751Z,951.07
2023-04-01T12:18:36.558Z,950.97
2023-04-01T12:19:36.586Z,951.02
2023-04-01T12:20:36.562Z,951.23
2023-04-01T12:21:36.484Z,951.13
2023-04-01T12:22:36.480Z,951.07
2023-04-01T12:23:36.472Z,951.11
2023-04-01T12:24:36.449Z,951.10
2023-04-01T12:25:36.450Z,951.16
2023-04-01T12:26:36.441Z,951.14
2023-04-01T12:27:36.394Z,951.13
2023-04-01T12:28:36.377Z,951.19
2023-04-01T12:29:36.369Z,951.19